sensor_id;sensor_type;location;lat;lon;timestamp;temperature;humidity
8715;DHT22;4394;51.208;8.904;2023-05-14T00:01:41;12.90;99.90
8715;DHT22;4394;51.208;8.904;2023-05-14T00:04:33;12.80;99.90
8715;DHT22;4394;51.208;8.904;2023-05-14T00:07:21;12.70;99.90
8715;DHT22;4394;51.208;8.904;2023-05-14T00:10:17;12.60;99.90
8715;DHT22;4394;51.208;8.904;2023-05-14T00:13:08;12.50;99.90
8715;DHT22;4394;51.208;8.904;2023-05-14T00:15:58;12.40;99.90
8715;DHT22;4394;51.208;8.904;2023-05-14T00:18:46;12.40;99.90
8715;DHT22;4394;51.208;8.904;2023-05-14T00:21:35;12.30;99.90
8715;DHT22;4394;51.208;8.904;2023-05-14T00:24:24;12.20;99.90
8715;DHT22;4394;51.208;8.904;2023-05-14T00:27:12;12.20;99.90
8715;DHT22;4394;51.208;8.904;2023-05-14T00:30:03;12.10;99.90
8715;DHT22;4394;51.208;8.904;2023-05-14T00:32:53;12.10;99.90
8715;DHT22;4394;51.208;8.904;2023-05-14T00:35:42;12.00;99.90
8715;DHT22;4394;51.208;8.904;2023-05-14T00:38:31;11.90;99.90
8715;DHT22;4394;51.208;8.904;2023-05-14T00:41:21;11.90;99.90
8715;DHT22;4394;51.208;8.904;2023-05-14T00:44:09;11.90;99.90
8715;DHT22;4394;51.208;8.904;2023-05-14T00:46:57;11.80;99.90
8715;DHT22;4394;51.208;8.904;2023-05-14T00:49:48;11.80;99.90
8715;DHT22;4394;51.208;8.904;2023-05-14T00:52:37;12.00;99.90
8715;DHT22;4394;51.208;8.904;2023-05-14T00:55:29;12.00;99.90
8715;DHT22;4394;51.208;8.904;2023-05-14T00:58:21;11.90;99.90
8715;DHT22;4394;51.208;8.904;2023-05-14T01:01:10;11.90;99.90
8715;DHT22;4394;51.208;8.904;2023-05-14T01:04:01;11.80;99.90
8715;DHT22;4394;51.208;8.904;2023-05-14T01:06:58;11.80;99.90
8715;DHT22;4394;51.208;8.904;2023-05-14T01:09:52;11.70;99.90
8715;DHT22;4394;51.208;8.904;2023-05-14T01:12:55;11.60;99.90
8715;DHT22;4394;51.208;8.904;2023-05-14T01:15:46;11.60;99.90
8715;DHT22;4394;51.208;8.904;2023-05-14T01:18:34;11.50;99.90
8715;DHT22;4394;51.208;8.904;2023-05-14T01:21:36;11.50;99.90
8715;DHT22;4394;51.208;8.904;2023-05-14T01:24:27;11.50;99.90
8715;DHT22;4394;51.208;8.904;2023-05-14T01:27:20;11.50;99.90
8715;DHT22;4394;51.208;8.904;2023-05-14T01:30:18;11.50;99.90
8715;DHT22;4394;51.208;8.904;2023-05-14T01:33:10;11.50;99.90
8715;DHT22;4394;51.208;8.904;2023-05-14T01:36:00;11.50;99.90
8715;DHT22;4394;51.208;8.904;2023-05-14T01:38:51;11.60;99.90
8715;DHT22;4394;51.208;8.904;2023-05-14T01:41:41;11.60;99.90
8715;DHT22;4394;51.208;8.904;2023-05-14T01:44:30;11.60;99.90
8715;DHT22;4394;51.208;8.904;2023-05-14T01:47:18;11.50;99.90
8715;DHT22;4394;51.208;8.904;2023-05-14T01:50:07;11.50;99.90
8715;DHT22;4394;51.208;8.904;2023-05-14T01:52:55;11.40;99.90
8715;DHT22;4394;51.208;8.904;2023-05-14T01:55:45;11.40;99.90
8715;DHT22;4394;51.208;8.904;2023-05-14T01:58:34;11.40;99.90
8715;DHT22;4394;51.208;8.904;2023-05-14T02:01:22;11.40;99.90
8715;DHT22;4394;51.208;8.904;2023-05-14T02:04:12;11.40;99.90
8715;DHT22;4394;51.208;8.904;2023-05-14T02:07:02;11.40;99.90
8715;DHT22;4394;51.208;8.904;2023-05-14T02:09:51;11.40;99.90
8715;DHT22;4394;51.208;8.904;2023-05-14T02:12:40;11.30;99.90
8715;DHT22;4394;51.208;8.904;2023-05-14T02:15:29;11.30;99.90
8715;DHT22;4394;51.208;8.904;2023-05-14T02:18:18;11.20;99.90
8715;DHT22;4394;51.208;8.904;2023-05-14T02:21:07;11.10;99.90
8715;DHT22;4394;51.208;8.904;2023-05-14T02:23:56;11.10;99.90
8715;DHT22;4394;51.208;8.904;2023-05-14T02:26:45;11.00;99.90
8715;DHT22;4394;51.208;8.904;2023-05-14T02:29:35;11.00;99.90
8715;DHT22;4394;51.208;8.904;2023-05-14T02:32:26;11.10;99.90
8715;DHT22;4394;51.208;8.904;2023-05-14T02:35:14;11.10;99.90
8715;DHT22;4394;51.208;8.904;2023-05-14T02:38:03;11.20;99.90
8715;DHT22;4394;51.208;8.904;2023-05-14T02:40:52;11.20;99.90
8715;DHT22;4394;51.208;8.904;2023-05-14T02:43:41;11.10;99.90
8715;DHT22;4394;51.208;8.904;2023-05-14T02:46:31;11.20;99.90
8715;DHT22;4394;51.208;8.904;2023-05-14T02:49:19;11.10;99.90
8715;DHT22;4394;51.208;8.904;2023-05-14T02:52:08;11.10;99.90
8715;DHT22;4394;51.208;8.904;2023-05-14T02:54:57;11.00;99.90
8715;DHT22;4394;51.208;8.904;2023-05-14T02:57:46;10.90;99.90
8715;DHT22;4394;51.208;8.904;2023-05-14T03:00:34;10.90;99.90
8715;DHT22;4394;51.208;8.904;2023-05-14T03:03:25;10.80;99.90
8715;DHT22;4394;51.208;8.904;2023-05-14T03:06:14;10.80;99.90
8715;DHT22;4394;51.208;8.904;2023-05-14T03:09:03;10.80;99.90
8715;DHT22;4394;51.208;8.904;2023-05-14T03:11:54;10.70;99.90
8715;DHT22;4394;51.208;8.904;2023-05-14T03:14:43;10.70;99.90
8715;DHT22;4394;51.208;8.904;2023-05-14T03:17:33;10.70;99.90
8715;DHT22;4394;51.208;8.904;2023-05-14T03:20:23;10.60;99.90
8715;DHT22;4394;51.208;8.904;2023-05-14T03:23:12;10.60;99.90
8715;DHT22;4394;51.208;8.904;2023-05-14T03:26:01;10.50;99.90
8715;DHT22;4394;51.208;8.904;2023-05-14T03:28:50;10.50;99.90
8715;DHT22;4394;51.208;8.904;2023-05-14T03:31:39;10.40;99.90
8715;DHT22;4394;51.208;8.904;2023-05-14T03:34:35;10.40;99.90
8715;DHT22;4394;51.208;8.904;2023-05-14T03:37:29;10.40;99.90
8715;DHT22;4394;51.208;8.904;2023-05-14T03:40:19;10.30;99.90
8715;DHT22;4394;51.208;8.904;2023-05-14T03:43:09;10.40;99.90
8715;DHT22;4394;51.208;8.904;2023-05-14T03:45:58;10.50;99.90
8715;DHT22;4394;51.208;8.904;2023-05-14T03:48:47;10.60;99.90
8715;DHT22;4394;51.208;8.904;2023-05-14T03:51:37;10.60;99.90
8715;DHT22;4394;51.208;8.904;2023-05-14T03:54:28;10.50;99.90
8715;DHT22;4394;51.208;8.904;2023-05-14T03:57:18;10.40;99.90
8715;DHT22;4394;51.208;8.904;2023-05-14T04:00:09;10.40;99.90
8715;DHT22;4394;51.208;8.904;2023-05-14T04:03:00;10.50;99.90
8715;DHT22;4394;51.208;8.904;2023-05-14T04:05:50;10.50;99.90
8715;DHT22;4394;51.208;8.904;2023-05-14T04:08:40;10.40;99.90
8715;DHT22;4394;51.208;8.904;2023-05-14T04:11:30;10.40;99.90
8715;DHT22;4394;51.208;8.904;2023-05-14T04:14:18;10.30;99.90
8715;DHT22;4394;51.208;8.904;2023-05-14T04:17:07;10.30;99.90
8715;DHT22;4394;51.208;8.904;2023-05-14T04:19:56;10.20;99.90
8715;DHT22;4394;51.208;8.904;2023-05-14T04:22:45;10.20;99.90
8715;DHT22;4394;51.208;8.904;2023-05-14T04:25:34;10.20;99.90
8715;DHT22;4394;51.208;8.904;2023-05-14T04:28:25;10.20;99.90
8715;DHT22;4394;51.208;8.904;2023-05-14T04:31:14;10.20;99.90
8715;DHT22;4394;51.208;8.904;2023-05-14T04:34:03;10.20;99.90
8715;DHT22;4394;51.208;8.904;2023-05-14T04:36:51;10.20;99.90
8715;DHT22;4394;51.208;8.904;2023-05-14T04:39:41;10.20;99.90
8715;DHT22;4394;51.208;8.904;2023-05-14T04:42:29;10.30;99.90
8715;DHT22;4394;51.208;8.904;2023-05-14T04:45:20;10.30;99.90
8715;DHT22;4394;51.208;8.904;2023-05-14T04:48:11;10.30;99.90
8715;DHT22;4394;51.208;8.904;2023-05-14T04:51:04;10.40;99.90
8715;DHT22;4394;51.208;8.904;2023-05-14T04:53:57;10.30;99.90
8715;DHT22;4394;51.208;8.904;2023-05-14T04:56:46;10.30;99.90
8715;DHT22;4394;51.208;8.904;2023-05-14T04:59:34;10.30;99.90
8715;DHT22;4394;51.208;8.904;2023-05-14T05:02:24;10.40;99.90
8715;DHT22;4394;51.208;8.904;2023-05-14T05:05:14;10.40;99.90
8715;DHT22;4394;51.208;8.904;2023-05-14T05:08:04;10.40;99.90
8715;DHT22;4394;51.208;8.904;2023-05-14T05:10:55;10.50;99.90
8715;DHT22;4394;51.208;8.904;2023-05-14T05:13:44;10.50;99.90
8715;DHT22;4394;51.208;8.904;2023-05-14T05:16:32;10.50;99.90
8715;DHT22;4394;51.208;8.904;2023-05-14T05:19:23;10.50;99.90
8715;DHT22;4394;51.208;8.904;2023-05-14T05:22:27;10.50;99.90
8715;DHT22;4394;51.208;8.904;2023-05-14T05:25:18;10.50;99.90
8715;DHT22;4394;51.208;8.904;2023-05-14T05:28:07;10.50;99.90
8715;DHT22;4394;51.208;8.904;2023-05-14T05:30:56;10.50;99.90
8715;DHT22;4394;51.208;8.904;2023-05-14T05:33:45;10.50;99.90
8715;DHT22;4394;51.208;8.904;2023-05-14T05:36:34;10.50;99.90
8715;DHT22;4394;51.208;8.904;2023-05-14T05:39:23;10.50;99.90
8715;DHT22;4394;51.208;8.904;2023-05-14T05:42:11;10.60;99.90
8715;DHT22;4394;51.208;8.904;2023-05-14T05:45:00;10.70;99.90
8715;DHT22;4394;51.208;8.904;2023-05-14T05:47:48;10.80;99.90
8715;DHT22;4394;51.208;8.904;2023-05-14T05:50:36;10.90;99.90
8715;DHT22;4394;51.208;8.904;2023-05-14T05:53:26;10.90;99.90
8715;DHT22;4394;51.208;8.904;2023-05-14T05:56:15;11.00;99.90
8715;DHT22;4394;51.208;8.904;2023-05-14T05:59:03;11.10;99.90
8715;DHT22;4394;51.208;8.904;2023-05-14T06:01:52;11.20;99.90
8715;DHT22;4394;51.208;8.904;2023-05-14T06:04:41;11.30;99.90
8715;DHT22;4394;51.208;8.904;2023-05-14T06:07:29;11.30;99.90
8715;DHT22;4394;51.208;8.904;2023-05-14T06:10:19;11.40;99.90
8715;DHT22;4394;51.208;8.904;2023-05-14T06:13:08;11.40;99.90
8715;DHT22;4394;51.208;8.904;2023-05-14T06:15:56;11.40;99.90
8715;DHT22;4394;51.208;8.904;2023-05-14T06:18:45;11.50;99.90
8715;DHT22;4394;51.208;8.904;2023-05-14T06:21:33;11.50;99.90
8715;DHT22;4394;51.208;8.904;2023-05-14T06:24:22;11.70;99.90
8715;DHT22;4394;51.208;8.904;2023-05-14T06:27:12;11.70;99.90
8715;DHT22;4394;51.208;8.904;2023-05-14T06:30:01;11.70;99.90
8715;DHT22;4394;51.208;8.904;2023-05-14T06:32:49;11.80;99.90
8715;DHT22;4394;51.208;8.904;2023-05-14T06:35:37;11.80;99.90
8715;DHT22;4394;51.208;8.904;2023-05-14T06:38:26;11.90;99.90
8715;DHT22;4394;51.208;8.904;2023-05-14T06:41:15;11.90;99.90
8715;DHT22;4394;51.208;8.904;2023-05-14T06:44:05;12.00;99.90
8715;DHT22;4394;51.208;8.904;2023-05-14T06:46:54;12.00;99.90
8715;DHT22;4394;51.208;8.904;2023-05-14T06:49:43;12.10;99.90
8715;DHT22;4394;51.208;8.904;2023-05-14T06:52:31;12.20;99.90
8715;DHT22;4394;51.208;8.904;2023-05-14T06:55:20;12.20;99.90
8715;DHT22;4394;51.208;8.904;2023-05-14T06:58:09;12.20;99.90
8715;DHT22;4394;51.208;8.904;2023-05-14T07:00:59;12.40;99.90
8715;DHT22;4394;51.208;8.904;2023-05-14T07:03:47;12.40;99.90
8715;DHT22;4394;51.208;8.904;2023-05-14T07:06:36;12.50;99.90
8715;DHT22;4394;51.208;8.904;2023-05-14T07:09:24;12.60;99.90
8715;DHT22;4394;51.208;8.904;2023-05-14T07:12:12;12.70;99.90
8715;DHT22;4394;51.208;8.904;2023-05-14T07:15:01;12.70;99.90
8715;DHT22;4394;51.208;8.904;2023-05-14T07:17:51;12.80;99.90
8715;DHT22;4394;51.208;8.904;2023-05-14T07:20:40;12.90;99.90
8715;DHT22;4394;51.208;8.904;2023-05-14T07:23:28;12.90;99.90
8715;DHT22;4394;51.208;8.904;2023-05-14T07:26:17;13.00;99.90
8715;DHT22;4394;51.208;8.904;2023-05-14T07:29:05;13.00;99.90
8715;DHT22;4394;51.208;8.904;2023-05-14T07:31:53;13.00;99.90
8715;DHT22;4394;51.208;8.904;2023-05-14T07:34:43;13.00;99.90
8715;DHT22;4394;51.208;8.904;2023-05-14T07:37:32;13.10;99.90
8715;DHT22;4394;51.208;8.904;2023-05-14T07:40:20;13.10;99.90
8715;DHT22;4394;51.208;8.904;2023-05-14T07:43:11;13.20;99.90
8715;DHT22;4394;51.208;8.904;2023-05-14T07:45:59;13.30;99.90
8715;DHT22;4394;51.208;8.904;2023-05-14T07:48:48;13.50;99.90
8715;DHT22;4394;51.208;8.904;2023-05-14T07:51:38;13.60;99.90
8715;DHT22;4394;51.208;8.904;2023-05-14T07:54:26;13.70;99.90
8715;DHT22;4394;51.208;8.904;2023-05-14T07:57:14;13.80;99.90
8715;DHT22;4394;51.208;8.904;2023-05-14T08:00:03;13.90;99.90
8715;DHT22;4394;51.208;8.904;2023-05-14T08:02:54;14.00;99.90
8715;DHT22;4394;51.208;8.904;2023-05-14T08:05:43;14.10;99.90
8715;DHT22;4394;51.208;8.904;2023-05-14T08:08:32;14.20;99.90
8715;DHT22;4394;51.208;8.904;2023-05-14T08:11:21;14.30;99.90
8715;DHT22;4394;51.208;8.904;2023-05-14T08:14:09;14.40;99.90
8715;DHT22;4394;51.208;8.904;2023-05-14T08:16:57;14.50;99.90
8715;DHT22;4394;51.208;8.904;2023-05-14T08:19:46;14.60;99.90
8715;DHT22;4394;51.208;8.904;2023-05-14T08:22:35;14.60;99.90
8715;DHT22;4394;51.208;8.904;2023-05-14T08:25:24;14.70;99.90
8715;DHT22;4394;51.208;8.904;2023-05-14T08:28:13;14.80;99.90
8715;DHT22;4394;51.208;8.904;2023-05-14T08:31:01;14.90;99.90
8715;DHT22;4394;51.208;8.904;2023-05-14T08:33:49;15.00;99.90
8715;DHT22;4394;51.208;8.904;2023-05-14T08:36:38;15.10;99.90
8715;DHT22;4394;51.208;8.904;2023-05-14T08:39:26;15.30;99.90
8715;DHT22;4394;51.208;8.904;2023-05-14T08:42:18;15.40;99.90
8715;DHT22;4394;51.208;8.904;2023-05-14T08:45:12;15.60;99.90
8715;DHT22;4394;51.208;8.904;2023-05-14T08:48:05;15.70;99.90
8715;DHT22;4394;51.208;8.904;2023-05-14T08:50:55;15.80;99.90
8715;DHT22;4394;51.208;8.904;2023-05-14T08:53:44;15.90;99.90
8715;DHT22;4394;51.208;8.904;2023-05-14T08:56:32;16.00;99.90
8715;DHT22;4394;51.208;8.904;2023-05-14T08:59:23;16.10;99.90
8715;DHT22;4394;51.208;8.904;2023-05-14T09:02:14;16.10;99.90
8715;DHT22;4394;51.208;8.904;2023-05-14T09:05:03;16.20;99.90
8715;DHT22;4394;51.208;8.904;2023-05-14T09:07:53;16.20;99.90
8715;DHT22;4394;51.208;8.904;2023-05-14T09:10:41;16.40;99.90
8715;DHT22;4394;51.208;8.904;2023-05-14T09:13:30;16.50;99.90
8715;DHT22;4394;51.208;8.904;2023-05-14T09:16:20;16.60;99.90
8715;DHT22;4394;51.208;8.904;2023-05-14T09:19:10;16.60;99.90
8715;DHT22;4394;51.208;8.904;2023-05-14T09:21:59;16.80;99.90
8715;DHT22;4394;51.208;8.904;2023-05-14T09:25:01;16.90;99.90
8715;DHT22;4394;51.208;8.904;2023-05-14T09:27:50;17.10;99.90
8715;DHT22;4394;51.208;8.904;2023-05-14T09:30:46;17.10;99.90
8715;DHT22;4394;51.208;8.904;2023-05-14T09:33:36;17.10;99.90
8715;DHT22;4394;51.208;8.904;2023-05-14T09:36:24;17.20;99.90
8715;DHT22;4394;51.208;8.904;2023-05-14T09:39:13;17.30;99.90
8715;DHT22;4394;51.208;8.904;2023-05-14T09:42:02;17.40;99.90
8715;DHT22;4394;51.208;8.904;2023-05-14T09:44:52;17.60;99.90
8715;DHT22;4394;51.208;8.904;2023-05-14T09:47:40;17.70;99.90
8715;DHT22;4394;51.208;8.904;2023-05-14T09:50:40;17.80;99.90
8715;DHT22;4394;51.208;8.904;2023-05-14T09:53:29;18.00;99.90
8715;DHT22;4394;51.208;8.904;2023-05-14T09:56:17;17.90;99.90
8715;DHT22;4394;51.208;8.904;2023-05-14T09:59:07;17.90;99.90
8715;DHT22;4394;51.208;8.904;2023-05-14T10:01:56;17.90;99.90
8715;DHT22;4394;51.208;8.904;2023-05-14T10:04:46;17.90;99.90
8715;DHT22;4394;51.208;8.904;2023-05-14T10:07:40;18.10;99.90
8715;DHT22;4394;51.208;8.904;2023-05-14T10:10:29;18.30;99.90
8715;DHT22;4394;51.208;8.904;2023-05-14T10:13:21;18.30;99.90
8715;DHT22;4394;51.208;8.904;2023-05-14T10:16:12;18.30;99.90
8715;DHT22;4394;51.208;8.904;2023-05-14T10:19:07;18.30;99.90
8715;DHT22;4394;51.208;8.904;2023-05-14T10:21:58;18.20;99.90
8715;DHT22;4394;51.208;8.904;2023-05-14T10:24:50;18.30;99.90
8715;DHT22;4394;51.208;8.904;2023-05-14T10:27:39;18.30;99.90
8715;DHT22;4394;51.208;8.904;2023-05-14T10:30:28;18.50;99.90
8715;DHT22;4394;51.208;8.904;2023-05-14T10:33:17;18.50;99.90
8715;DHT22;4394;51.208;8.904;2023-05-14T10:36:06;18.60;99.90
8715;DHT22;4394;51.208;8.904;2023-05-14T10:38:55;18.60;99.90
8715;DHT22;4394;51.208;8.904;2023-05-14T10:41:45;18.60;99.90
8715;DHT22;4394;51.208;8.904;2023-05-14T10:44:34;18.60;99.90
8715;DHT22;4394;51.208;8.904;2023-05-14T10:47:23;18.80;99.90
8715;DHT22;4394;51.208;8.904;2023-05-14T10:50:14;19.00;99.90
8715;DHT22;4394;51.208;8.904;2023-05-14T10:53:03;19.10;99.90
8715;DHT22;4394;51.208;8.904;2023-05-14T10:55:53;19.20;99.90
8715;DHT22;4394;51.208;8.904;2023-05-14T10:58:44;19.20;99.90
8715;DHT22;4394;51.208;8.904;2023-05-14T11:01:34;19.20;99.90
8715;DHT22;4394;51.208;8.904;2023-05-14T11:04:22;19.20;99.90
8715;DHT22;4394;51.208;8.904;2023-05-14T11:07:11;19.30;99.90
8715;DHT22;4394;51.208;8.904;2023-05-14T11:10:02;19.40;99.90
8715;DHT22;4394;51.208;8.904;2023-05-14T11:12:51;19.50;99.90
8715;DHT22;4394;51.208;8.904;2023-05-14T11:15:42;19.60;99.90
8715;DHT22;4394;51.208;8.904;2023-05-14T11:18:34;19.60;99.90
8715;DHT22;4394;51.208;8.904;2023-05-14T11:21:24;19.70;99.90
8715;DHT22;4394;51.208;8.904;2023-05-14T11:24:13;19.80;99.90
8715;DHT22;4394;51.208;8.904;2023-05-14T11:27:01;20.00;99.90
8715;DHT22;4394;51.208;8.904;2023-05-14T11:29:50;20.20;99.90
8715;DHT22;4394;51.208;8.904;2023-05-14T11:32:39;20.30;99.90
8715;DHT22;4394;51.208;8.904;2023-05-14T11:35:29;20.30;99.90
8715;DHT22;4394;51.208;8.904;2023-05-14T11:38:19;20.30;99.90
8715;DHT22;4394;51.208;8.904;2023-05-14T11:41:08;20.20;99.90
8715;DHT22;4394;51.208;8.904;2023-05-14T11:43:57;20.20;99.90
8715;DHT22;4394;51.208;8.904;2023-05-14T11:46:53;20.30;99.90
8715;DHT22;4394;51.208;8.904;2023-05-14T11:49:43;20.40;99.90
8715;DHT22;4394;51.208;8.904;2023-05-14T11:52:36;20.50;99.90
8715;DHT22;4394;51.208;8.904;2023-05-14T11:55:25;20.30;99.90
8715;DHT22;4394;51.208;8.904;2023-05-14T11:58:14;20.20;99.90
8715;DHT22;4394;51.208;8.904;2023-05-14T12:01:04;20.20;99.90
8715;DHT22;4394;51.208;8.904;2023-05-14T12:03:53;20.20;99.90
8715;DHT22;4394;51.208;8.904;2023-05-14T12:06:43;20.40;99.90
8715;DHT22;4394;51.208;8.904;2023-05-14T12:09:36;20.60;99.90
8715;DHT22;4394;51.208;8.904;2023-05-14T12:12:25;20.70;99.90
8715;DHT22;4394;51.208;8.904;2023-05-14T12:15:15;20.80;99.90
8715;DHT22;4394;51.208;8.904;2023-05-14T12:18:08;21.10;99.90
8715;DHT22;4394;51.208;8.904;2023-05-14T12:21:09;21.20;99.90
8715;DHT22;4394;51.208;8.904;2023-05-14T12:24:00;21.10;99.90
8715;DHT22;4394;51.208;8.904;2023-05-14T12:26:50;20.90;99.90
8715;DHT22;4394;51.208;8.904;2023-05-14T12:29:42;20.90;99.90
8715;DHT22;4394;51.208;8.904;2023-05-14T12:32:31;20.90;99.90
8715;DHT22;4394;51.208;8.904;2023-05-14T12:35:20;20.90;99.90
8715;DHT22;4394;51.208;8.904;2023-05-14T12:38:09;20.90;99.90
8715;DHT22;4394;51.208;8.904;2023-05-14T12:40:59;20.90;99.90
8715;DHT22;4394;51.208;8.904;2023-05-14T12:43:47;20.90;99.90
8715;DHT22;4394;51.208;8.904;2023-05-14T12:46:36;20.80;99.90
8715;DHT22;4394;51.208;8.904;2023-05-14T12:49:24;20.70;99.90
8715;DHT22;4394;51.208;8.904;2023-05-14T12:52:13;20.60;99.90
8715;DHT22;4394;51.208;8.904;2023-05-14T12:55:22;20.60;99.90
8715;DHT22;4394;51.208;8.904;2023-05-14T12:58:11;20.50;99.90
8715;DHT22;4394;51.208;8.904;2023-05-14T13:01:01;20.60;99.90
8715;DHT22;4394;51.208;8.904;2023-05-14T13:03:51;20.80;99.90
8715;DHT22;4394;51.208;8.904;2023-05-14T13:06:39;20.90;99.90
8715;DHT22;4394;51.208;8.904;2023-05-14T13:09:28;21.00;99.90
8715;DHT22;4394;51.208;8.904;2023-05-14T13:12:16;21.00;99.90
8715;DHT22;4394;51.208;8.904;2023-05-14T13:15:07;21.00;99.90
8715;DHT22;4394;51.208;8.904;2023-05-14T13:17:56;20.90;99.90
8715;DHT22;4394;51.208;8.904;2023-05-14T13:20:45;20.80;99.90
8715;DHT22;4394;51.208;8.904;2023-05-14T13:23:34;20.90;99.90
8715;DHT22;4394;51.208;8.904;2023-05-14T13:26:24;20.80;99.90
8715;DHT22;4394;51.208;8.904;2023-05-14T13:29:14;20.80;99.90
8715;DHT22;4394;51.208;8.904;2023-05-14T13:32:04;20.80;99.90
8715;DHT22;4394;51.208;8.904;2023-05-14T13:34:54;20.80;99.90
8715;DHT22;4394;51.208;8.904;2023-05-14T13:37:43;21.00;99.90
8715;DHT22;4394;51.208;8.904;2023-05-14T13:40:31;21.20;99.90
8715;DHT22;4394;51.208;8.904;2023-05-14T13:43:20;21.40;99.90
8715;DHT22;4394;51.208;8.904;2023-05-14T13:46:09;21.60;99.90
8715;DHT22;4394;51.208;8.904;2023-05-14T13:48:59;21.70;99.90
8715;DHT22;4394;51.208;8.904;2023-05-14T13:51:48;21.80;99.90
8715;DHT22;4394;51.208;8.904;2023-05-14T13:54:36;21.90;99.90
8715;DHT22;4394;51.208;8.904;2023-05-14T13:57:25;21.80;99.90
8715;DHT22;4394;51.208;8.904;2023-05-14T14:00:14;21.80;99.90
8715;DHT22;4394;51.208;8.904;2023-05-14T14:03:03;21.80;99.90
8715;DHT22;4394;51.208;8.904;2023-05-14T14:05:52;22.00;99.90
8715;DHT22;4394;51.208;8.904;2023-05-14T14:08:41;22.00;99.90
8715;DHT22;4394;51.208;8.904;2023-05-14T14:11:29;22.00;99.90
8715;DHT22;4394;51.208;8.904;2023-05-14T14:14:17;21.90;99.90
8715;DHT22;4394;51.208;8.904;2023-05-14T14:17:06;21.80;99.90
8715;DHT22;4394;51.208;8.904;2023-05-14T14:19:55;21.70;99.90
8715;DHT22;4394;51.208;8.904;2023-05-14T14:22:45;21.70;99.90
8715;DHT22;4394;51.208;8.904;2023-05-14T14:25:33;21.70;99.90
8715;DHT22;4394;51.208;8.904;2023-05-14T14:28:21;21.60;99.90
8715;DHT22;4394;51.208;8.904;2023-05-14T14:31:10;21.60;99.30
8715;DHT22;4394;51.208;8.904;2023-05-14T14:33:59;21.50;99.30
8715;DHT22;4394;51.208;8.904;2023-05-14T14:36:47;21.50;99.90
8715;DHT22;4394;51.208;8.904;2023-05-14T14:39:37;21.70;99.90
8715;DHT22;4394;51.208;8.904;2023-05-14T14:42:25;22.00;99.90
8715;DHT22;4394;51.208;8.904;2023-05-14T14:45:13;22.00;99.90
8715;DHT22;4394;51.208;8.904;2023-05-14T14:48:21;21.80;99.90
8715;DHT22;4394;51.208;8.904;2023-05-14T14:51:10;21.70;99.90
8715;DHT22;4394;51.208;8.904;2023-05-14T14:53:58;21.60;99.90
8715;DHT22;4394;51.208;8.904;2023-05-14T14:56:48;21.50;99.90
8715;DHT22;4394;51.208;8.904;2023-05-14T14:59:38;21.60;99.90
8715;DHT22;4394;51.208;8.904;2023-05-14T15:02:26;21.50;99.50
8715;DHT22;4394;51.208;8.904;2023-05-14T15:05:15;21.50;99.90
8715;DHT22;4394;51.208;8.904;2023-05-14T15:08:03;21.50;99.90
8715;DHT22;4394;51.208;8.904;2023-05-14T15:10:52;21.70;99.90
8715;DHT22;4394;51.208;8.904;2023-05-14T15:13:42;21.90;99.90
8715;DHT22;4394;51.208;8.904;2023-05-14T15:16:30;22.00;99.90
8715;DHT22;4394;51.208;8.904;2023-05-14T15:19:19;22.00;99.90
8715;DHT22;4394;51.208;8.904;2023-05-14T15:22:07;22.10;99.90
8715;DHT22;4394;51.208;8.904;2023-05-14T15:24:56;22.10;99.90
8715;DHT22;4394;51.208;8.904;2023-05-14T15:27:44;22.20;99.90
8715;DHT22;4394;51.208;8.904;2023-05-14T15:30:35;22.30;99.90
8715;DHT22;4394;51.208;8.904;2023-05-14T15:33:23;22.30;99.90
8715;DHT22;4394;51.208;8.904;2023-05-14T15:36:12;22.30;99.90
8715;DHT22;4394;51.208;8.904;2023-05-14T15:39:01;22.30;99.90
8715;DHT22;4394;51.208;8.904;2023-05-14T15:41:49;22.30;99.90
8715;DHT22;4394;51.208;8.904;2023-05-14T15:44:38;22.30;99.90
8715;DHT22;4394;51.208;8.904;2023-05-14T15:47:27;22.20;99.90
8715;DHT22;4394;51.208;8.904;2023-05-14T15:50:16;22.30;99.90
8715;DHT22;4394;51.208;8.904;2023-05-14T15:53:04;22.40;99.90
8715;DHT22;4394;51.208;8.904;2023-05-14T15:55:53;22.50;99.90
8715;DHT22;4394;51.208;8.904;2023-05-14T15:58:42;22.60;99.90
8715;DHT22;4394;51.208;8.904;2023-05-14T16:01:30;22.60;99.90
8715;DHT22;4394;51.208;8.904;2023-05-14T16:04:20;22.60;99.90
8715;DHT22;4394;51.208;8.904;2023-05-14T16:07:09;22.60;99.90
8715;DHT22;4394;51.208;8.904;2023-05-14T16:09:58;22.50;99.90
8715;DHT22;4394;51.208;8.904;2023-05-14T16:12:46;22.60;99.90
8715;DHT22;4394;51.208;8.904;2023-05-14T16:15:35;22.70;99.90
8715;DHT22;4394;51.208;8.904;2023-05-14T16:18:24;22.70;99.90
8715;DHT22;4394;51.208;8.904;2023-05-14T16:21:14;22.70;99.90
8715;DHT22;4394;51.208;8.904;2023-05-14T16:24:03;22.70;99.90
8715;DHT22;4394;51.208;8.904;2023-05-14T16:26:51;22.70;99.90
8715;DHT22;4394;51.208;8.904;2023-05-14T16:29:40;22.70;99.90
8715;DHT22;4394;51.208;8.904;2023-05-14T16:32:28;22.60;98.90
8715;DHT22;4394;51.208;8.904;2023-05-14T16:35:16;22.40;99.60
8715;DHT22;4394;51.208;8.904;2023-05-14T16:38:06;22.70;97.20
8715;DHT22;4394;51.208;8.904;2023-05-14T16:40:54;22.20;97.00
8715;DHT22;4394;51.208;8.904;2023-05-14T16:43:43;21.80;97.10
8715;DHT22;4394;51.208;8.904;2023-05-14T16:46:32;21.50;98.50
8715;DHT22;4394;51.208;8.904;2023-05-14T16:49:20;21.20;98.50
8715;DHT22;4394;51.208;8.904;2023-05-14T16:52:08;21.00;99.00
8715;DHT22;4394;51.208;8.904;2023-05-14T16:54:58;20.80;99.80
8715;DHT22;4394;51.208;8.904;2023-05-14T16:57:46;20.60;99.90
8715;DHT22;4394;51.208;8.904;2023-05-14T17:00:34;20.50;99.90
8715;DHT22;4394;51.208;8.904;2023-05-14T17:03:23;20.40;99.90
8715;DHT22;4394;51.208;8.904;2023-05-14T17:06:11;20.30;99.90
8715;DHT22;4394;51.208;8.904;2023-05-14T17:09:00;20.40;99.90
8715;DHT22;4394;51.208;8.904;2023-05-14T17:11:50;20.20;99.90
8715;DHT22;4394;51.208;8.904;2023-05-14T17:14:38;20.00;99.90
8715;DHT22;4394;51.208;8.904;2023-05-14T17:17:27;19.80;99.90
8715;DHT22;4394;51.208;8.904;2023-05-14T17:20:15;19.70;99.90
8715;DHT22;4394;51.208;8.904;2023-05-14T17:23:03;19.60;99.90
8715;DHT22;4394;51.208;8.904;2023-05-14T17:25:52;19.60;99.90
8715;DHT22;4394;51.208;8.904;2023-05-14T17:28:44;19.50;99.90
8715;DHT22;4394;51.208;8.904;2023-05-14T17:31:32;19.40;99.90
8715;DHT22;4394;51.208;8.904;2023-05-14T17:34:21;19.30;99.90
8715;DHT22;4394;51.208;8.904;2023-05-14T17:37:09;19.30;99.90
8715;DHT22;4394;51.208;8.904;2023-05-14T17:39:58;19.80;99.90
8715;DHT22;4394;51.208;8.904;2023-05-14T17:42:46;19.40;99.90
8715;DHT22;4394;51.208;8.904;2023-05-14T17:45:36;19.30;99.90
8715;DHT22;4394;51.208;8.904;2023-05-14T17:48:39;19.10;99.90
8715;DHT22;4394;51.208;8.904;2023-05-14T17:51:27;18.90;99.90
8715;DHT22;4394;51.208;8.904;2023-05-14T17:54:16;18.80;99.90
8715;DHT22;4394;51.208;8.904;2023-05-14T17:57:05;18.70;99.90
8715;DHT22;4394;51.208;8.904;2023-05-14T17:59:55;18.70;99.90
8715;DHT22;4394;51.208;8.904;2023-05-14T18:02:45;18.70;99.90
8715;DHT22;4394;51.208;8.904;2023-05-14T18:05:33;18.70;99.90
8715;DHT22;4394;51.208;8.904;2023-05-14T18:08:21;18.60;99.90
8715;DHT22;4394;51.208;8.904;2023-05-14T18:11:10;18.60;99.90
8715;DHT22;4394;51.208;8.904;2023-05-14T18:13:59;18.40;99.90
8715;DHT22;4394;51.208;8.904;2023-05-14T18:16:47;18.30;99.90
8715;DHT22;4394;51.208;8.904;2023-05-14T18:19:37;18.20;99.90
8715;DHT22;4394;51.208;8.904;2023-05-14T18:22:26;18.10;99.90
8715;DHT22;4394;51.208;8.904;2023-05-14T18:25:15;18.10;99.90
8715;DHT22;4394;51.208;8.904;2023-05-14T18:28:04;18.00;99.90